createdAt,value
2019-05-14T00:02:12.248Z,102915.41
2019-05-14T00:04:42.314Z,102913.42
2019-05-14T00:07:11.704Z,102914.15
2019-05-14T00:09:41.438Z,102906.50
2019-05-14T00:12:11.290Z,102913.18
2019-05-14T00:14:43.568Z,102910.56
2019-05-14T00:17:11.274Z,102914.56
2019-05-14T00:19:41.675Z,102907.16
2019-05-14T00:22:11.602Z,102914.64
2019-05-14T00:24:41.685Z,102916.33
2019-05-14T00:27:11.480Z,102907.98
2019-05-14T00:29:41.762Z,102912.18
2019-05-14T00:32:11.260Z,102908.20
2019-05-14T00:34:42.219Z,102907.67
2019-05-14T00:37:11.579Z,102908.20
2019-05-14T00:39:41.605Z,102907.18
2019-05-14T00:42:12.431Z,102903.66
2019-05-14T00:44:53.792Z,102908.36
2019-05-14T00:47:11.439Z,102906.25
2019-05-14T00:49:42.219Z,102905.98
2019-05-14T00:52:11.688Z,102909.28
2019-05-14T00:54:41.723Z,102913.69
2019-05-14T00:57:11.894Z,102909.45
2019-05-14T00:59:41.703Z,102909.09
2019-05-14T01:02:11.446Z,102911.11
2019-05-14T01:04:42.589Z,102912.89
2019-05-14T01:07:11.941Z,102912.78
2019-05-14T01:09:42.027Z,102917.39
2019-05-14T01:12:12.226Z,102906.58
2019-05-14T01:14:42.325Z,102905.44
2019-05-14T01:17:11.474Z,102895.95
2019-05-14T01:19:42.463Z,102894.36
2019-05-14T01:22:12.455Z,102896.02
2019-05-14T01:24:41.838Z,102891.96
2019-05-14T01:27:12.367Z,102896.65
2019-05-14T01:29:42.440Z,102888.44
2019-05-14T01:32:11.867Z,102882.22
2019-05-14T01:34:41.897Z,102888.42
2019-05-14T01:37:11.632Z,102879.52
2019-05-14T01:39:41.776Z,102879.25
2019-05-14T01:42:12.577Z,102875.12
2019-05-14T01:44:41.559Z,102866.42
2019-05-14T01:47:12.398Z,102866.17
2019-05-14T01:49:42.756Z,102857.77
2019-05-14T01:52:11.532Z,102854.06
2019-05-14T01:54:42.390Z,102854.22
2019-05-14T01:57:11.595Z,102842.17
2019-05-14T01:59:42.555Z,102841.72
2019-05-14T02:02:11.736Z,102838.70
2019-05-14T02:04:42.662Z,102838.01
2019-05-14T02:07:11.734Z,102833.36
2019-05-14T02:09:42.044Z,102834.49
2019-05-14T02:12:11.782Z,102846.48
2019-05-14T02:14:42.523Z,102840.75
2019-05-14T02:17:12.443Z,102840.58
2019-05-14T02:19:42.555Z,102840.88
2019-05-14T02:22:11.534Z,102843.64
2019-05-14T02:24:41.830Z,102841.59
2019-05-14T02:27:12.347Z,102848.09
2019-05-14T02:29:42.023Z,102848.53
2019-05-14T02:32:11.117Z,102841.31
2019-05-14T02:34:40.434Z,102840.48
2019-05-14T02:37:09.715Z,102839.59
2019-05-14T02:39:40.887Z,102841.51
2019-05-14T02:42:09.852Z,102838.98
2019-05-14T02:44:40.765Z,102836.30
2019-05-14T02:47:10.168Z,102840.78
2019-05-14T02:49:39.899Z,102837.67
2019-05-14T02:52:09.929Z,102835.95
2019-05-14T02:54:40.317Z,102828.66
2019-05-14T02:57:10.622Z,102825.90
2019-05-14T02:59:39.967Z,102836.64
2019-05-14T03:02:09.895Z,102838.73
2019-05-14T03:04:39.699Z,102840.98
2019-05-14T03:07:10.687Z,102845.45
2019-05-14T03:09:40.484Z,102842.02
2019-05-14T03:12:10.241Z,102844.92
2019-05-14T03:14:39.869Z,102847.34
2019-05-14T03:17:10.427Z,102842.86
2019-05-14T03:19:40.598Z,102840.11
2019-05-14T03:22:10.211Z,102830.37
2019-05-14T03:24:39.847Z,102831.80
2019-05-14T03:27:09.863Z,102828.33
2019-05-14T03:29:40.087Z,102829.73
2019-05-14T03:32:12.848Z,102840.78
2019-05-14T03:34:42.872Z,102833.31
2019-05-14T03:37:12.850Z,102829.69
2019-05-14T03:39:41.203Z,102822.08
2019-05-14T03:42:09.906Z,102825.88
2019-05-14T03:44:39.869Z,102824.84
2019-05-14T03:47:10.360Z,102820.54
2019-05-14T03:49:40.035Z,102826.92
2019-05-14T03:52:09.654Z,102832.08
2019-05-14T03:54:40.597Z,102828.63
2019-05-14T03:57:09.821Z,102823.80
2019-05-14T03:59:40.185Z,102824.50
2019-05-14T04:02:09.823Z,102824.19
2019-05-14T04:04:39.517Z,102819.66
2019-05-14T04:07:09.914Z,102826.72
2019-05-14T04:09:41.667Z,102825.89
2019-05-14T04:12:11.853Z,102821.72
2019-05-14T04:14:44.021Z,102824.77
2019-05-14T04:17:17.324Z,102823.73
2019-05-14T04:19:49.507Z,102817.23
2019-05-14T04:22:22.675Z,102812.05
2019-05-14T04:24:53.715Z,102814.81
2019-05-14T04:27:23.956Z,102818.55
2019-05-14T04:29:52.938Z,102820.75
2019-05-14T04:32:21.666Z,102812.12
2019-05-14T04:34:50.432Z,102804.28
2019-05-14T04:37:20.063Z,102799.78
2019-05-14T04:39:50.327Z,102803.47
2019-05-14T04:42:20.318Z,102795.95
2019-05-14T04:44:50.554Z,102794.08
2019-05-14T04:47:31.215Z,102792.36
2019-05-14T04:49:50.763Z,102789.88
2019-05-14T04:52:20.438Z,102794.08
2019-05-14T04:54:50.076Z,102792.00
2019-05-14T04:57:21.379Z,102797.69
2019-05-14T04:59:49.847Z,102786.20
2019-05-14T05:02:19.902Z,102791.30
2019-05-14T05:04:50.591Z,102791.64
2019-05-14T05:07:19.426Z,102782.70
2019-05-14T05:09:50.122Z,102789.81
2019-05-14T05:12:19.717Z,102789.09
2019-05-14T05:14:49.242Z,102795.37
2019-05-14T05:17:19.608Z,102795.66
2019-05-14T05:19:51.486Z,102796.50
2019-05-14T05:22:19.685Z,102807.41
2019-05-14T05:24:48.661Z,102800.33
2019-05-14T05:27:18.445Z,102803.10
2019-05-14T05:29:48.605Z,102803.95
2019-05-14T05:32:19.478Z,102804.44
2019-05-14T05:34:48.402Z,102802.19
2019-05-14T05:37:19.014Z,102797.91
2019-05-14T05:39:49.057Z,102791.88
2019-05-14T05:42:18.776Z,102797.38
2019-05-14T05:44:48.450Z,102796.36
2019-05-14T05:47:18.276Z,102792.02
2019-05-14T05:49:48.828Z,102796.19
2019-05-14T05:52:19.193Z,102790.65
2019-05-14T05:54:49.002Z,102783.61
2019-05-14T05:57:18.810Z,102783.24
2019-05-14T05:59:48.533Z,102787.79
2019-05-14T06:02:18.609Z,102783.63
2019-05-14T06:04:48.907Z,102787.47
2019-05-14T06:07:18.386Z,102781.00
2019-05-14T06:09:48.301Z,102784.92
2019-05-14T06:12:19.036Z,102781.88
2019-05-14T06:14:48.799Z,102779.03
2019-05-14T06:17:19.177Z,102781.62
2019-05-14T06:19:48.612Z,102769.67
2019-05-14T06:22:18.873Z,102772.62
2019-05-14T06:24:48.608Z,102776.98
2019-05-14T06:27:18.262Z,102766.41
2019-05-14T06:29:48.886Z,102759.32
2019-05-14T06:32:18.654Z,102771.21
2019-05-14T06:34:48.872Z,102770.53
2019-05-14T06:37:19.218Z,102765.22
2019-05-14T06:39:48.528Z,102761.02
2019-05-14T06:42:19.341Z,102754.16
2019-05-14T06:44:49.324Z,102755.69
2019-05-14T06:47:18.418Z,102752.09
2019-05-14T06:49:48.809Z,102749.06
2019-05-14T06:52:18.797Z,102753.16
2019-05-14T06:54:49.690Z,102755.09
2019-05-14T06:57:18.263Z,102755.06
2019-05-14T06:59:48.420Z,102756.11
2019-05-14T07:02:19.400Z,102753.30
2019-05-14T07:04:48.573Z,102749.06
2019-05-14T07:07:20.317Z,102744.03
2019-05-14T07:09:48.851Z,102741.80
2019-05-14T07:12:19.210Z,102744.36
2019-05-14T07:14:48.341Z,102743.27
2019-05-14T07:17:18.348Z,102737.41
2019-05-14T07:19:48.980Z,102742.44
2019-05-14T07:22:19.629Z,102750.69
2019-05-14T07:24:49.719Z,102749.08
2019-05-14T07:27:19.350Z,102745.66
2019-05-14T07:29:49.160Z,102744.67
2019-05-14T07:32:19.181Z,102748.63
2019-05-14T07:34:48.257Z,102753.31
2019-05-14T07:37:18.114Z,102757.80
2019-05-14T07:39:48.742Z,102747.39
2019-05-14T07:42:18.337Z,102741.27
2019-05-14T07:44:48.587Z,102745.52
2019-05-14T07:47:18.713Z,102740.25
2019-05-14T07:49:49.064Z,102733.97
2019-05-14T07:52:19.742Z,102730.77
2019-05-14T07:54:48.528Z,102731.52
2019-05-14T07:57:19.142Z,102719.50
2019-05-14T07:59:48.426Z,102723.28
2019-05-14T08:02:19.587Z,102728.06
2019-05-14T08:04:48.664Z,102715.03
2019-05-14T08:07:18.073Z,102719.27
2019-05-14T08:09:48.039Z,102713.78
2019-05-14T08:12:19.140Z,102714.20
2019-05-14T08:15:08.602Z,102718.52
2019-05-14T08:17:19.014Z,102712.55
2019-05-14T08:19:49.120Z,102707.33
2019-05-14T08:22:18.708Z,102715.58
2019-05-14T08:24:48.900Z,102706.47
2019-05-14T08:27:19.188Z,102709.77
2019-05-14T08:29:48.668Z,102707.08
2019-05-14T08:32:19.137Z,102712.23
2019-05-14T08:34:48.242Z,102716.86
2019-05-14T08:37:18.913Z,102716.12
2019-05-14T08:39:48.726Z,102710.80
2019-05-14T08:42:18.603Z,102717.08
2019-05-14T08:44:50.921Z,102714.70
2019-05-14T08:47:18.412Z,102709.17
2019-05-14T08:49:50.422Z,102708.48
2019-05-14T08:52:19.190Z,102711.22
2019-05-14T08:54:50.524Z,102697.66
2019-05-14T08:57:19.102Z,102696.38
2019-05-14T08:59:48.647Z,102680.22
2019-05-14T09:02:19.680Z,102667.07
2019-05-14T09:04:53.571Z,102674.97
2019-05-14T09:07:18.813Z,102669.53
2019-05-14T09:09:48.846Z,102656.72
2019-05-14T09:12:18.775Z,102656.66
2019-05-14T09:14:48.406Z,102644.52
2019-05-14T09:17:18.512Z,102651.84
2019-05-14T09:19:58.775Z,102644.70
2019-05-14T09:22:18.487Z,102640.74
2019-05-14T09:24:49.089Z,102645.59
2019-05-14T09:27:19.283Z,102659.49
2019-05-14T09:29:48.561Z,102659.49
2019-05-14T09:32:19.092Z,102664.09
2019-05-14T09:34:48.792Z,102656.25
2019-05-14T09:37:19.247Z,102651.66
2019-05-14T09:39:48.791Z,102646.90
2019-05-14T09:42:19.617Z,102652.52
2019-05-14T09:44:49.043Z,102659.48
2019-05-14T09:47:18.937Z,102649.38
2019-05-14T09:49:49.150Z,102645.84
2019-05-14T09:52:18.674Z,102652.25
2019-05-14T09:54:49.604Z,102648.34
2019-05-14T09:57:18.954Z,102646.53
2019-05-14T09:59:48.049Z,102649.20
2019-05-14T10:02:16.761Z,102653.98
2019-05-14T10:04:45.478Z,102653.39
2019-05-14T10:07:15.821Z,102654.72
2019-05-14T10:09:44.580Z,102662.66
2019-05-14T10:12:13.128Z,102657.70
2019-05-14T10:14:42.198Z,102649.55
2019-05-14T10:17:10.791Z,102653.89
2019-05-14T10:19:39.727Z,102638.33
2019-05-14T10:22:08.751Z,102634.72
2019-05-14T10:24:38.685Z,102644.02
2019-05-14T10:27:09.058Z,102634.20
2019-05-14T10:29:39.447Z,102629.27
2019-05-14T10:32:08.863Z,102639.38
2019-05-14T10:34:37.606Z,102632.00
2019-05-14T10:37:08.660Z,102623.91
2019-05-14T10:39:39.183Z,102609.52
2019-05-14T10:42:08.907Z,102604.91
2019-05-14T10:44:38.796Z,102599.27
2019-05-14T10:47:09.250Z,102580.94
2019-05-14T10:49:38.734Z,102588.30
2019-05-14T10:52:08.400Z,102593.91
2019-05-14T10:54:40.271Z,102584.78
2019-05-14T10:57:09.643Z,102585.00
2019-05-14T10:59:38.071Z,102580.96
2019-05-14T11:02:11.622Z,102573.56
2019-05-14T11:04:38.993Z,102568.20
2019-05-14T11:07:07.806Z,102574.66
2019-05-14T11:09:38.122Z,102573.44
2019-05-14T11:12:08.910Z,102565.91
2019-05-14T11:14:38.774Z,102559.30
2019-05-14T11:17:11.824Z,102561.09
2019-05-14T11:19:38.985Z,102553.81
2019-05-14T11:22:08.473Z,102540.27
2019-05-14T11:24:38.614Z,102539.56
2019-05-14T11:27:07.650Z,102533.67
2019-05-14T11:29:38.725Z,102537.16
2019-05-14T11:32:09.617Z,102535.94
2019-05-14T11:34:38.981Z,102535.94
2019-05-14T11:37:08.532Z,102536.56
2019-05-14T11:39:37.958Z,102533.99
2019-05-14T11:42:08.519Z,102507.99
2019-05-14T11:44:38.205Z,102507.99
2019-05-14T11:47:08.986Z,102512.52
2019-05-14T11:49:37.663Z,102514.02
2019-05-14T11:52:10.431Z,102507.23
2019-05-14T11:54:40.873Z,102499.89
2019-05-14T11:57:11.653Z,102497.47
2019-05-14T11:59:39.120Z,102496.90
2019-05-14T12:02:09.682Z,102488.28
2019-05-14T12:04:39.116Z,102479.35
2019-05-14T12:07:09.604Z,102480.23
2019-05-14T12:09:39.255Z,102475.50
2019-05-14T12:12:12.342Z,102472.44
2019-05-14T12:14:38.914Z,102472.42
2019-05-14T12:17:09.401Z,102463.80
2019-05-14T12:19:39.400Z,102473.61
2019-05-14T12:22:11.765Z,102479.83
2019-05-14T12:24:39.190Z,102470.84
2019-05-14T12:27:08.786Z,102457.19
2019-05-14T12:29:39.810Z,102469.83
2019-05-14T12:32:12.477Z,102466.58
2019-05-14T12:34:38.976Z,102456.77
2019-05-14T12:37:09.041Z,102464.52
2019-05-14T12:39:37.852Z,102470.52
2019-05-14T12:42:10.007Z,102476.28
2019-05-14T12:44:40.537Z,102461.05
2019-05-14T12:47:09.434Z,102455.71
2019-05-14T12:49:38.840Z,102444.98
2019-05-14T12:52:19.023Z,102451.27
2019-05-14T12:54:38.987Z,102449.39
2019-05-14T12:57:10.266Z,102440.70
2019-05-14T12:59:38.909Z,102440.70
2019-05-14T13:02:09.652Z,102439.17
2019-05-14T13:04:41.731Z,102439.17
2019-05-14T13:07:10.371Z,102440.13
2019-05-14T13:09:38.968Z,102434.61
2019-05-14T13:12:11.249Z,102434.02
2019-05-14T13:14:39.470Z,102432.41
2019-05-14T13:17:09.302Z,102424.42
2019-05-14T13:19:38.100Z,102437.77
2019-05-14T13:22:13.599Z,102435.73
2019-05-14T13:24:39.423Z,102413.49
2019-05-14T13:27:09.445Z,102411.85
2019-05-14T13:29:38.315Z,102416.02
2019-05-14T13:32:12.019Z,102403.64
2019-05-14T13:34:39.576Z,102406.56
2019-05-14T13:37:08.457Z,102399.48
2019-05-14T13:39:39.932Z,102397.69
2019-05-14T13:42:11.639Z,102394.19
2019-05-14T13:44:38.607Z,102387.77
2019-05-14T13:47:09.177Z,102385.84
2019-05-14T13:49:39.111Z,102386.00
2019-05-14T13:52:09.335Z,102389.66
2019-05-14T13:54:39.391Z,102382.52
2019-05-14T13:57:11.557Z,102372.55
2019-05-14T13:59:44.086Z,102365.55
2019-05-14T14:02:10.103Z,102375.56
2019-05-14T14:04:39.110Z,102367.19
2019-05-14T14:07:09.104Z,102351.75
2019-05-14T14:09:39.505Z,102352.82
2019-05-14T14:12:08.809Z,102352.82
2019-05-14T14:14:38.679Z,102354.17
2019-05-14T14:17:07.906Z,102342.44
2019-05-14T14:19:38.747Z,102336.73
2019-05-14T14:22:09.921Z,102348.92
2019-05-14T14:24:38.724Z,102354.39
2019-05-14T14:27:09.131Z,102349.60
2019-05-14T14:29:39.593Z,102341.42
2019-05-14T14:32:11.360Z,102332.48
2019-05-14T14:34:41.415Z,102330.02
2019-05-14T14:37:10.484Z,102325.69
2019-05-14T14:39:39.144Z,102318.17
2019-05-14T14:42:07.931Z,102303.32
2019-05-14T14:44:39.141Z,102295.45
2019-05-14T14:47:08.068Z,102299.45
2019-05-14T14:49:42.345Z,102299.95
2019-05-14T14:52:11.772Z,102304.09
2019-05-14T14:54:38.420Z,102304.09
2019-05-14T14:57:08.484Z,102307.34
2019-05-14T14:59:39.097Z,102311.58
2019-05-14T15:02:10.270Z,102292.88
2019-05-14T15:04:39.671Z,102298.05
2019-05-14T15:07:09.843Z,102293.81
2019-05-14T15:09:40.609Z,102287.03
2019-05-14T15:12:09.278Z,102291.27
2019-05-14T15:14:39.574Z,102285.34
2019-05-14T15:17:09.492Z,102287.23
2019-05-14T15:19:39.488Z,102281.09
2019-05-14T15:22:10.863Z,102283.92
2019-05-14T15:24:39.672Z,102282.52
2019-05-14T15:27:14.813Z,102279.69
2019-05-14T15:29:42.725Z,102276.25
2019-05-14T15:32:09.496Z,102280.47
2019-05-14T15:34:38.288Z,102288.19
2019-05-14T15:37:08.968Z,102276.67
2019-05-14T15:39:39.115Z,102270.47
2019-05-14T15:42:13.350Z,102259.09
2019-05-14T15:44:48.822Z,102260.17
2019-05-14T15:47:11.632Z,102247.48
2019-05-14T15:49:39.611Z,102261.28
2019-05-14T15:52:08.523Z,102257.71
2019-05-14T15:54:45.795Z,102252.80
2019-05-14T15:57:09.154Z,102253.64
2019-05-14T15:59:39.141Z,102253.66
2019-05-14T16:02:09.450Z,102250.23
2019-05-14T16:04:38.966Z,102246.34
2019-05-14T16:07:09.518Z,102259.30
2019-05-14T16:09:39.677Z,102243.67
2019-05-14T16:12:09.583Z,102251.12
2019-05-14T16:14:38.862Z,102246.44
2019-05-14T16:17:11.283Z,102241.94
2019-05-14T16:19:39.201Z,102244.97
2019-05-14T16:22:09.769Z,102237.63
2019-05-14T16:24:53.005Z,102236.83
2019-05-14T16:27:09.118Z,102220.04
2019-05-14T16:29:45.185Z,102225.39
2019-05-14T16:32:08.611Z,102219.08
2019-05-14T16:34:40.838Z,102227.56
2019-05-14T16:37:11.139Z,102230.03
2019-05-14T16:39:39.185Z,102223.53
2019-05-14T16:42:07.950Z,102232.56
2019-05-14T16:44:38.945Z,102231.44
2019-05-14T16:47:09.734Z,102229.86
2019-05-14T16:49:37.759Z,102230.36
2019-05-14T16:52:08.847Z,102237.70
2019-05-14T16:54:39.318Z,102232.70
2019-05-14T16:57:10.997Z,102228.78
2019-05-14T16:59:39.495Z,102226.28
2019-05-14T17:02:09.176Z,102225.40
2019-05-14T17:04:38.852Z,102225.56
2019-05-14T17:07:09.541Z,102222.59
2019-05-14T17:09:38.603Z,102226.22
2019-05-14T17:12:08.553Z,102222.14
2019-05-14T17:14:38.548Z,102228.62
2019-05-14T17:17:09.223Z,102230.05
2019-05-14T17:19:38.583Z,102231.73
2019-05-14T17:22:23.367Z,102230.48
2019-05-14T17:24:39.792Z,102224.59
2019-05-14T17:27:08.900Z,102220.73
2019-05-14T17:29:38.884Z,102219.05
2019-05-14T17:32:07.753Z,102215.50
2019-05-14T17:34:38.671Z,102209.67
2019-05-14T17:37:08.944Z,102217.58
2019-05-14T17:39:38.730Z,102222.56
2019-05-14T17:42:11.438Z,102225.61
2019-05-14T17:44:38.852Z,102217.29
2019-05-14T17:47:07.566Z,102218.42
2019-05-14T17:49:36.192Z,102220.84
2019-05-14T17:52:04.942Z,102218.47
2019-05-14T17:54:33.831Z,102215.44
2019-05-14T17:57:02.629Z,102215.04
2019-05-14T17:59:33.545Z,102215.64
2019-05-14T18:02:01.878Z,102212.44
2019-05-14T18:04:30.504Z,102212.79
2019-05-14T18:06:59.333Z,102211.25
2019-05-14T18:09:29.368Z,102208.23
2019-05-14T18:11:58.625Z,102207.67
2019-05-14T18:14:28.367Z,102207.59
2019-05-14T18:16:58.492Z,102204.39
2019-05-14T18:19:28.976Z,102211.08
2019-05-14T18:21:59.386Z,102212.16
2019-05-14T18:24:28.721Z,102204.08
2019-05-14T18:26:57.381Z,102204.86
2019-05-14T18:29:25.945Z,102206.61
2019-05-14T18:31:55.363Z,102208.86
2019-05-14T18:34:24.147Z,102207.73
2019-05-14T18:36:52.794Z,102209.81
2019-05-14T18:39:21.594Z,102203.99
2019-05-14T18:41:50.276Z,102207.12
2019-05-14T18:44:19.148Z,102197.44
2019-05-14T18:46:48.647Z,102202.34
2019-05-14T18:49:19.452Z,102200.56
2019-05-14T18:51:50.203Z,102198.17
2019-05-14T18:54:18.984Z,102205.28
2019-05-14T18:56:48.910Z,102199.64
2019-05-14T18:59:21.295Z,102199.87
2019-05-14T19:01:48.908Z,102193.92
2019-05-14T19:04:18.803Z,102190.67
2019-05-14T19:06:48.242Z,102186.99
2019-05-14T19:09:18.578Z,102189.92
2019-05-14T19:11:48.284Z,102184.28
2019-05-14T19:14:18.781Z,102189.02
2019-05-14T19:16:48.988Z,102187.09
2019-05-14T19:19:17.830Z,102180.06
2019-05-14T19:21:48.700Z,102187.09
2019-05-14T19:24:18.907Z,102183.92
2019-05-14T19:26:49.373Z,102186.66
2019-05-14T19:29:18.549Z,102190.97
2019-05-14T19:31:48.721Z,102189.95
2019-05-14T19:34:19.216Z,102184.85
2019-05-14T19:36:48.037Z,102188.28
2019-05-14T19:39:18.752Z,102187.77
2019-05-14T19:41:48.383Z,102186.35
2019-05-14T19:44:19.124Z,102183.34
2019-05-14T19:46:49.219Z,102179.41
2019-05-14T19:49:18.415Z,102182.93
2019-05-14T19:51:48.285Z,102191.47
2019-05-14T19:54:19.473Z,102184.66
2019-05-14T19:56:56.518Z,102183.98
2019-05-14T19:59:18.410Z,102189.48
2019-05-14T20:01:48.456Z,102189.03
2019-05-14T20:04:18.341Z,102187.09
2019-05-14T20:06:49.268Z,102188.33
2019-05-14T20:09:17.902Z,102186.18
2019-05-14T20:11:48.900Z,102194.69
2019-05-14T20:14:17.272Z,102197.53
2019-05-14T20:16:46.661Z,102197.03
2019-05-14T20:19:16.656Z,102189.86
2019-05-14T20:21:45.523Z,102195.87
2019-05-14T20:24:14.168Z,102195.48
2019-05-14T20:26:45.601Z,102190.98
2019-05-14T20:29:13.311Z,102190.96
2019-05-14T20:31:41.849Z,102195.52
2019-05-14T20:34:10.529Z,102189.75
2019-05-14T20:36:39.218Z,102193.22
2019-05-14T20:39:08.750Z,102182.63
2019-05-14T20:41:38.431Z,102185.93
2019-05-14T20:44:07.448Z,102184.70
2019-05-14T20:46:38.096Z,102183.45
2019-05-14T20:49:08.772Z,102186.54
2019-05-14T20:51:38.896Z,102179.55
2019-05-14T20:54:08.881Z,102181.82
2019-05-14T20:56:39.997Z,102180.42
2019-05-14T20:59:08.412Z,102175.30
2019-05-14T21:01:38.707Z,102185.82
2019-05-14T21:04:09.039Z,102183.28
2019-05-14T21:06:39.104Z,102175.61
2019-05-14T21:09:08.193Z,102169.83
2019-05-14T21:11:38.449Z,102177.55
2019-05-14T21:14:08.988Z,102165.33
2019-05-14T21:16:39.271Z,102170.58
2019-05-14T21:19:08.690Z,102163.94
2019-05-14T21:21:38.317Z,102162.96
2019-05-14T21:24:08.895Z,102160.65
2019-05-14T21:26:39.886Z,102158.69
2019-05-14T21:29:08.047Z,102161.16
2019-05-14T21:31:38.532Z,102161.47
2019-05-14T21:34:08.159Z,102157.72
2019-05-14T21:36:38.960Z,102168.16
2019-05-14T21:39:08.117Z,102161.05
2019-05-14T21:41:38.699Z,102168.59
2019-05-14T21:44:08.574Z,102164.66
2019-05-14T21:46:39.885Z,102151.80
2019-05-14T21:49:10.910Z,102157.36
2019-05-14T21:51:39.189Z,102157.70
2019-05-14T21:54:09.455Z,102153.92
2019-05-14T21:56:38.798Z,102152.77
2019-05-14T21:59:09.530Z,102158.45
2019-05-14T22:01:39.330Z,102160.92
2019-05-14T22:04:11.331Z,102155.55
2019-05-14T22:06:41.433Z,102161.39
2019-05-14T22:09:09.703Z,102161.28
2019-05-14T22:11:39.377Z,102163.58
2019-05-14T22:14:08.180Z,102160.28
2019-05-14T22:16:38.164Z,102169.50
2019-05-14T22:19:08.528Z,102161.03
2019-05-14T22:21:38.623Z,102161.88
2019-05-14T22:24:07.744Z,102160.00
2019-05-14T22:26:38.641Z,102160.38
2019-05-14T22:29:08.282Z,102157.53
2019-05-14T22:31:38.795Z,102156.50
2019-05-14T22:34:08.893Z,102159.72
2019-05-14T22:36:38.647Z,102163.16
2019-05-14T22:39:07.496Z,102154.59
2019-05-14T22:41:38.074Z,102159.39
2019-05-14T22:44:09.033Z,102159.75
2019-05-14T22:46:39.955Z,102157.27
2019-05-14T22:49:09.185Z,102145.52
2019-05-14T22:51:38.355Z,102141.55
2019-05-14T22:54:08.672Z,102144.50
2019-05-14T22:56:38.922Z,102149.06
2019-05-14T22:59:07.810Z,102152.92
2019-05-14T23:01:38.589Z,102155.22
2019-05-14T23:04:09.086Z,102158.69
2019-05-14T23:06:38.280Z,102147.98
2019-05-14T23:09:09.052Z,102150.94
2019-05-14T23:11:38.473Z,102146.49
2019-05-14T23:14:07.340Z,102148.45
2019-05-14T23:16:39.278Z,102144.36
2019-05-14T23:19:07.968Z,102143.02
2019-05-14T23:21:38.847Z,102139.57
2019-05-14T23:24:09.131Z,102139.98
2019-05-14T23:26:37.969Z,102138.80
2019-05-14T23:29:06.536Z,102140.42
2019-05-14T23:31:35.211Z,102141.09
2019-05-14T23:34:03.725Z,102141.53
2019-05-14T23:36:32.456Z,102139.78
2019-05-14T23:39:01.626Z,102133.98
2019-05-14T23:41:30.150Z,102136.20
2019-05-14T23:43:58.796Z,102136.05
2019-05-14T23:46:29.193Z,102131.93
2019-05-14T23:48:59.265Z,102131.44
2019-05-14T23:51:28.992Z,102127.58
2019-05-14T23:53:57.806Z,102130.91
2019-05-14T23:56:28.645Z,102125.47
2019-05-14T23:59:01.398Z,102124.98
